• Join FlightAware (Why Join?)
  • Login
  • US Flag 
12:35PM EDT


 

Airport Tracker/Info


-or-


 

Live Flight TrackerFlight Track Log ✈ ASH2604 ✈ 27-Apr-2012 ✈ KCVG - KCLT

Flight Track Log - Related Links

Times and Time Zones

All times are in EDT time to prevent confusion due to time zone crossing. See the ASH2604 flight status page for this flight to view local times or setup timezone preferences in your user account.

Time Position Orientation Groundspeed Altitude Reporting Facility
EDT Latitude Longitude Course Direction KTS MPH feet Rate Location/Type
08:30PM 39.0237 -84.6602 17° North  Level FlightAware Approximate
08:31PM 39.0500 -84.6500 123° Southeast 175 201 1,500  Level Cincinnati TRACON
08:32PM 39.0167 -84.5833 171° South 250 288 6,200 2,940 Climbing Cincinnati TRACON
08:33PM 38.9417 -84.5689 175° South 279 321 9,800 3,120 Climbing Indianapolis Center
08:34PM 38.8542 -84.5597 174° South 303 349 12,700 2,940 Climbing Indianapolis Center
08:35PM 38.7603 -84.5478 175° South 327 376 15,700 2,700 Climbing Indianapolis Center
08:36PM 38.6583 -84.5356 173° South 355 409 18,100 2,100 Climbing Indianapolis Center
08:37PM 38.5542 -84.5183 176° South 376 433 19,900 2,100 Climbing Indianapolis Center
08:38PM 38.4394 -84.5089 176° South 396 456 22,400 2,340 Climbing Indianapolis Center
08:39PM 38.3269 -84.4994 177° South 411 473 24,600 2,400 Climbing Indianapolis Center
08:40PM 38.2122 -84.4928 177° South 417 480 27,200 1,800 Climbing Indianapolis Center
08:41PM 38.0914 -84.4858 174° South 422 486 28,200 960 Climbing Indianapolis Center
08:42PM 37.9642 -84.4683 164° South 447 514 29,200 900 Climbing Indianapolis Center
08:43PM 37.8333 -84.4194 164° South 479 551 30,000 360 Climbing Indianapolis Center
08:44PM 37.7022 -84.3733 163° South 487 560 30,000  Level Indianapolis Center
08:45PM 37.5731 -84.3222 162° South 493 567 30,000  Level Indianapolis Center
08:46PM 37.4464 -84.2711 163° South 487 560 30,000  Level Indianapolis Center
08:47PM 37.3192 -84.2231 163° South 487 560 30,000  Level Indianapolis Center
08:48PM 37.1903 -84.1722 162° South 480 552 30,000  Level Indianapolis Center
08:49PM 37.0633 -84.1192 122° Southeast 480 552 30,000  Level Indianapolis Center
08:50PM 36.9908 -83.9756 109° East 462 532 30,000  Level Indianapolis Center
08:51PM 36.9433 -83.8064 110° East 483 556 30,000  Level Indianapolis Center
08:52PM 36.8956 -83.6400 102° East 513 590 30,000  Level Indianapolis Center
08:53PM 36.8664 -83.4686 104° East 513 590 30,000 -300 Level Indianapolis Center
08:56PM 36.7842 -83.0486 116° Southeast 495 570 29,000 -300 Descending Atlanta Center
08:57PM 36.7308 -82.9094 115° Southeast 458 527 29,000  Level Atlanta Center
08:58PM 36.6794 -82.7731 115° Southeast 437 503 29,000  Level Atlanta Center
08:59PM 36.6281 -82.6367 150° Southeast 428 493 29,000 -540 Level Atlanta Center
09:00PM 36.5356 -82.5711 180° South 381 438 28,000 -1,320 Descending Atlanta Center
09:01PM 36.4228 -82.5706 181° South 369 425 26,400 -1,500 Descending Atlanta Center
09:02PM 36.3186 -82.5725 178° South 387 445 25,100 -960 Descending Atlanta Center
09:03PM 36.2331 -82.5689 179° South 380 437 24,500 -600 Descending Atlanta Center
09:04PM 36.1100 -82.5661 180° South 375 432 24,000 -300 Descending Atlanta Center
09:05PM 36.0078 -82.5653 136° Southeast 370 426 24,000  Level Atlanta Center
09:06PM 35.9314 -82.4744 114° Southeast 360 414 24,000  Level Atlanta Center
09:07PM 35.8839 -82.3447 112° Southeast 370 426 24,000 -600 Level Atlanta Center
09:08PM 35.8467 -82.2300 115° Southeast 402 463 22,900 -1,860 Descending Atlanta Center
09:09PM 35.8011 -82.1108 115° Southeast 390 449 20,300 -2,580 Descending Atlanta Center
09:10PM 35.7575 -81.9942 114° Southeast 374 430 17,800 -2,280 Descending Atlanta Center
09:11PM 35.7136 -81.8725 116° Southeast 361 415 15,800 -2,160 Descending Atlanta Center
09:12PM 35.6831 -81.7939 114° Southeast 347 399 14,100 -2,040 Descending Atlanta Center
09:13PM 35.6369 -81.6650 118° Southeast 336 387 11,800 -1,380 Descending Atlanta Center
09:14PM 35.5953 -81.5692 122° Southeast 326 375 11,000 -600 Descending Atlanta Center
09:15PM 35.5497 -81.4786 104° East 320 368 10,600 -1,140 Descending Atlanta Center
09:16PM 35.5286 -81.3747 104° East 309 356 8,800 -1,680 Descending Atlanta Center
09:17PM 35.5078 -81.2758 105° East 303 349 7,300 -1,380 Descending Atlanta Center
09:18PM 35.4844 -81.1719 104° East 291 335 5,800 -1,440 Descending Atlanta Center
09:19PM 35.4656 -81.0758 114° Southeast 275 316 4,200 -900 Descending Atlanta Center
09:20PM 35.4386 -81.0003 154° Southeast 257 296 4,000 -180 Descending Atlanta Center
09:21PM 35.3814 -80.9667 177° South 223 257 3,900 -720 Descending Atlanta Center
09:23PM 35.3083 -80.9617 177° South 180 207 2,300 -1,200 Descending Atlanta Center